sensor_id;sensor_type;location;lat;lon;timestamp;pressure;altitude;pressure_sealevel;temperature;humidity
65758;BME280;52495;52.208;5.158;2023-02-18T00:01:58;102110.28;;;9.92;100.00
65758;BME280;52495;52.208;5.158;2023-02-18T00:04:25;102109.44;;;9.88;100.00
65758;BME280;52495;52.208;5.158;2023-02-18T00:06:52;102109.47;;;9.90;100.00
65758;BME280;52495;52.208;5.158;2023-02-18T00:09:19;102111.19;;;9.94;100.00
65758;BME280;52495;52.208;5.158;2023-02-18T00:11:47;102108.59;;;9.92;100.00
65758;BME280;52495;52.208;5.158;2023-02-18T00:14:15;102106.88;;;9.91;100.00
65758;BME280;52495;52.208;5.158;2023-02-18T00:16:43;102098.28;;;9.92;100.00
65758;BME280;52495;52.208;5.158;2023-02-18T00:19:12;102093.97;;;9.93;100.00
65758;BME280;52495;52.208;5.158;2023-02-18T00:21:39;102098.31;;;9.95;100.00
65758;BME280;52495;52.208;5.158;2023-02-18T00:24:07;102091.41;;;9.96;100.00
65758;BME280;52495;52.208;5.158;2023-02-18T00:26:35;102095.72;;;9.97;100.00
65758;BME280;52495;52.208;5.158;2023-02-18T00:29:03;102094.88;;;9.98;100.00
65758;BME280;52495;52.208;5.158;2023-02-18T00:31:32;102090.56;;;9.95;100.00
65758;BME280;52495;52.208;5.158;2023-02-18T00:34:00;102082.78;;;9.91;100.00
65758;BME280;52495;52.208;5.158;2023-02-18T00:36:28;102082.78;;;9.89;100.00
65758;BME280;52495;52.208;5.158;2023-02-18T00:38:57;102078.50;;;9.96;100.00
65758;BME280;52495;52.208;5.158;2023-02-18T00:41:26;102081.06;;;9.93;100.00
65758;BME280;52495;52.208;5.158;2023-02-18T00:43:54;102075.06;;;9.92;100.00
65758;BME280;52495;52.208;5.158;2023-02-18T00:46:23;102081.06;;;9.93;100.00
65758;BME280;52495;52.208;5.158;2023-02-18T00:48:52;102069.91;;;9.92;100.00
65758;BME280;52495;52.208;5.158;2023-02-18T00:51:19;102075.06;;;9.97;100.00
65758;BME280;52495;52.208;5.158;2023-02-18T00:53:47;102069.91;;;9.95;100.00
65758;BME280;52495;52.208;5.158;2023-02-18T00:56:14;102069.91;;;9.94;100.00
65758;BME280;52495;52.208;5.158;2023-02-18T00:58:41;102063.88;;;9.92;100.00
65758;BME280;52495;52.208;5.158;2023-02-18T01:01:09;102068.16;;;9.91;100.00
65758;BME280;52495;52.208;5.158;2023-02-18T01:03:39;102068.16;;;9.93;100.00
65758;BME280;52495;52.208;5.158;2023-02-18T01:06:07;102063.88;;;9.89;100.00
65758;BME280;52495;52.208;5.158;2023-02-18T01:08:35;102060.41;;;9.88;100.00
65758;BME280;52495;52.208;5.158;2023-02-18T01:11:03;102061.28;;;9.90;100.00
65758;BME280;52495;52.208;5.158;2023-02-18T01:13:30;102070.72;;;9.88;100.00
65758;BME280;52495;52.208;5.158;2023-02-18T01:15:58;102072.44;;;9.84;100.00
65758;BME280;52495;52.208;5.158;2023-02-18T01:18:25;102072.41;;;9.81;100.00
65758;BME280;52495;52.208;5.158;2023-02-18T01:20:54;102074.97;;;9.78;100.00
65758;BME280;52495;52.208;5.158;2023-02-18T01:23:21;102058.66;;;9.78;100.00
65758;BME280;52495;52.208;5.158;2023-02-18T01:25:48;102060.38;;;9.79;100.00
65758;BME280;52495;52.208;5.158;2023-02-18T01:28:15;102045.75;;;9.79;100.00
65758;BME280;52495;52.208;5.158;2023-02-18T01:30:43;102052.63;;;9.77;100.00
65758;BME280;52495;52.208;5.158;2023-02-18T01:33:10;102044.03;;;9.78;100.00
65758;BME280;52495;52.208;5.158;2023-02-18T01:35:37;102047.44;;;9.77;100.00
65758;BME280;52495;52.208;5.158;2023-02-18T01:38:06;102049.16;;;9.75;100.00
65758;BME280;52495;52.208;5.158;2023-02-18T01:40:33;102042.31;;;9.76;100.00
65758;BME280;52495;52.208;5.158;2023-02-18T01:43:00;102043.16;;;9.75;100.00
65758;BME280;52495;52.208;5.158;2023-02-18T01:45:50;102044.00;;;9.72;100.00
65758;BME280;52495;52.208;5.158;2023-02-18T01:48:20;102036.25;;;9.70;100.00
65758;BME280;52495;52.208;5.158;2023-02-18T01:50:51;102037.97;;;9.70;100.00
65758;BME280;52495;52.208;5.158;2023-02-18T01:53:24;102029.34;;;9.63;100.00
65758;BME280;52495;52.208;5.158;2023-02-18T01:55:52;102032.75;;;9.61;100.00
65758;BME280;52495;52.208;5.158;2023-02-18T01:58:20;102033.66;;;9.64;100.00
65758;BME280;52495;52.208;5.158;2023-02-18T02:00:46;102028.50;;;9.64;100.00
65758;BME280;52495;52.208;5.158;2023-02-18T02:03:13;102010.41;;;9.63;100.00
65758;BME280;52495;52.208;5.158;2023-02-18T02:05:42;102010.41;;;9.61;100.00
65758;BME280;52495;52.208;5.158;2023-02-18T02:08:12;102005.25;;;9.58;100.00
65758;BME280;52495;52.208;5.158;2023-02-18T02:10:55;102001.78;;;9.57;100.00
65758;BME280;52495;52.208;5.158;2023-02-18T02:13:36;101998.34;;;9.59;100.00
65758;BME280;52495;52.208;5.158;2023-02-18T02:16:10;101985.47;;;9.62;100.00
65758;BME280;52495;52.208;5.158;2023-02-18T02:18:49;101974.28;;;9.58;100.00
65758;BME280;52495;52.208;5.158;2023-02-18T02:24:45;101948.50;;;9.58;100.00
65758;BME280;52495;52.208;5.158;2023-02-18T02:27:24;101953.66;;;9.60;100.00
65758;BME280;52495;52.208;5.158;2023-02-18T02:30:10;101944.22;;;9.62;100.00
65758;BME280;52495;52.208;5.158;2023-02-18T02:35:59;101921.00;;;9.57;100.00
65758;BME280;52495;52.208;5.158;2023-02-18T02:38:31;101912.41;;;9.55;100.00
65758;BME280;52495;52.208;5.158;2023-02-18T02:41:08;101907.22;;;9.56;100.00
65758;BME280;52495;52.208;5.158;2023-02-18T02:43:50;101899.53;;;9.60;100.00
65758;BME280;52495;52.208;5.158;2023-02-18T02:46:23;101890.94;;;9.61;100.00
65758;BME280;52495;52.208;5.158;2023-02-18T02:48:57;101892.66;;;9.55;100.00
65758;BME280;52495;52.208;5.158;2023-02-18T02:51:34;101894.38;;;9.60;100.00
65758;BME280;52495;52.208;5.158;2023-02-18T02:54:15;101882.34;;;9.62;100.00
65758;BME280;52495;52.208;5.158;2023-02-18T02:56:42;101891.81;;;9.63;100.00
65758;BME280;52495;52.208;5.158;2023-02-18T02:59:12;101880.63;;;9.64;100.00
65758;BME280;52495;52.208;5.158;2023-02-18T03:01:54;101878.03;;;9.61;100.00
65758;BME280;52495;52.208;5.158;2023-02-18T03:04:35;101866.84;;;9.59;100.00
65758;BME280;52495;52.208;5.158;2023-02-18T03:07:32;101866.88;;;9.57;100.00
65758;BME280;52495;52.208;5.158;2023-02-18T03:10:15;101871.16;;;9.60;100.00
65758;BME280;52495;52.208;5.158;2023-02-18T03:12:47;101868.59;;;9.58;100.00
65758;BME280;52495;52.208;5.158;2023-02-18T03:15:21;101865.13;;;9.57;100.00
65758;BME280;52495;52.208;5.158;2023-02-18T03:17:55;101851.41;;;9.65;100.00
65758;BME280;52495;52.208;5.158;2023-02-18T03:20:27;101854.84;;;9.62;100.00
65758;BME280;52495;52.208;5.158;2023-02-18T03:23:01;101844.53;;;9.62;100.00
65758;BME280;52495;52.208;5.158;2023-02-18T03:25:31;101842.84;;;9.64;100.00
65758;BME280;52495;52.208;5.158;2023-02-18T03:28:01;101835.09;;;9.67;100.00
65758;BME280;52495;52.208;5.158;2023-02-18T03:30:35;101820.47;;;9.69;100.00
65758;BME280;52495;52.208;5.158;2023-02-18T03:33:04;101813.59;;;9.71;100.00
65758;BME280;52495;52.208;5.158;2023-02-18T03:35:32;101807.59;;;9.74;100.00
65758;BME280;52495;52.208;5.158;2023-02-18T03:38:05;101798.13;;;9.76;100.00
65758;BME280;52495;52.208;5.158;2023-02-18T03:40:35;101797.28;;;9.77;100.00
65758;BME280;52495;52.208;5.158;2023-02-18T03:43:02;101787.84;;;9.73;100.00
65758;BME280;52495;52.208;5.158;2023-02-18T03:45:29;101786.13;;;9.72;100.00
65758;BME280;52495;52.208;5.158;2023-02-18T03:47:57;101792.13;;;9.69;100.00
65758;BME280;52495;52.208;5.158;2023-02-18T03:50:24;101786.09;;;9.66;100.00
65758;BME280;52495;52.208;5.158;2023-02-18T03:52:50;101786.09;;;9.69;100.00
65758;BME280;52495;52.208;5.158;2023-02-18T03:55:18;101780.09;;;9.67;100.00
65758;BME280;52495;52.208;5.158;2023-02-18T03:57:45;101779.22;;;9.68;100.00
65758;BME280;52495;52.208;5.158;2023-02-18T04:00:13;101774.94;;;9.70;100.00
65758;BME280;52495;52.208;5.158;2023-02-18T04:02:40;101777.50;;;9.64;100.00
65758;BME280;52495;52.208;5.158;2023-02-18T04:05:07;101779.22;;;9.63;100.00
65758;BME280;52495;52.208;5.158;2023-02-18T04:07:34;101771.47;;;9.62;100.00
65758;BME280;52495;52.208;5.158;2023-02-18T04:10:01;101764.63;;;9.62;100.00
65758;BME280;52495;52.208;5.158;2023-02-18T04:12:30;101760.31;;;9.63;100.00
65758;BME280;52495;52.208;5.158;2023-02-18T04:14:57;101762.03;;;9.62;100.00
65758;BME280;52495;52.208;5.158;2023-02-18T04:17:24;101748.28;;;9.65;100.00
65758;BME280;52495;52.208;5.158;2023-02-18T04:19:51;101738.81;;;9.64;100.00
65758;BME280;52495;52.208;5.158;2023-02-18T04:22:18;101748.25;;;9.59;100.00
65758;BME280;52495;52.208;5.158;2023-02-18T04:24:44;101744.84;;;9.61;100.00
65758;BME280;52495;52.208;5.158;2023-02-18T04:27:11;101744.81;;;9.55;100.00
65758;BME280;52495;52.208;5.158;2023-02-18T04:29:39;101736.25;;;9.59;100.00
65758;BME280;52495;52.208;5.158;2023-02-18T04:32:06;101739.69;;;9.53;100.00
65758;BME280;52495;52.208;5.158;2023-02-18T04:34:33;101737.94;;;9.59;100.00
65758;BME280;52495;52.208;5.158;2023-02-18T04:37:00;101731.91;;;9.56;100.00
65758;BME280;52495;52.208;5.158;2023-02-18T04:39:26;101725.06;;;9.59;100.00
65758;BME280;52495;52.208;5.158;2023-02-18T04:41:53;101715.63;;;9.62;100.00
65758;BME280;52495;52.208;5.158;2023-02-18T04:44:20;101718.19;;;9.61;100.00
65758;BME280;52495;52.208;5.158;2023-02-18T04:46:48;101718.19;;;9.64;100.00
65758;BME280;52495;52.208;5.158;2023-02-18T04:49:15;101713.91;;;9.63;100.00
65758;BME280;52495;52.208;5.158;2023-02-18T04:51:42;101702.72;;;9.65;100.00
65758;BME280;52495;52.208;5.158;2023-02-18T04:54:08;101697.56;;;9.67;100.00
65758;BME280;52495;52.208;5.158;2023-02-18T04:56:35;101711.31;;;9.67;100.00
65758;BME280;52495;52.208;5.158;2023-02-18T04:59:02;101708.75;;;9.64;100.00
65758;BME280;52495;52.208;5.158;2023-02-18T05:01:29;101710.44;;;9.61;100.00
65758;BME280;52495;52.208;5.158;2023-02-18T05:03:57;101704.44;;;9.62;100.00
65758;BME280;52495;52.208;5.158;2023-02-18T05:06:24;101694.97;;;9.64;100.00
65758;BME280;52495;52.208;5.158;2023-02-18T05:08:50;101703.59;;;9.64;100.00
65758;BME280;52495;52.208;5.158;2023-02-18T05:11:17;101702.72;;;9.61;100.00
65758;BME280;52495;52.208;5.158;2023-02-18T05:13:44;101707.00;;;9.66;100.00
65758;BME280;52495;52.208;5.158;2023-02-18T05:16:11;101697.56;;;9.64;100.00
65758;BME280;52495;52.208;5.158;2023-02-18T05:18:38;101699.28;;;9.65;100.00
65758;BME280;52495;52.208;5.158;2023-02-18T05:21:06;101692.41;;;9.65;100.00
65758;BME280;52495;52.208;5.158;2023-02-18T05:23:33;101684.66;;;9.68;100.00
65758;BME280;52495;52.208;5.158;2023-02-18T05:26:00;101685.53;;;9.69;100.00
65758;BME280;52495;52.208;5.158;2023-02-18T05:28:27;101681.22;;;9.74;100.00
65758;BME280;52495;52.208;5.158;2023-02-18T05:30:53;101683.81;;;9.74;100.00
65758;BME280;52495;52.208;5.158;2023-02-18T05:33:20;101670.94;;;9.76;100.00
65758;BME280;52495;52.208;5.158;2023-02-18T05:35:47;101671.78;;;9.75;100.00
65758;BME280;52495;52.208;5.158;2023-02-18T05:38:16;101666.63;;;9.76;100.00
65758;BME280;52495;52.208;5.158;2023-02-18T05:40:43;101668.34;;;9.77;100.00
65758;BME280;52495;52.208;5.158;2023-02-18T05:43:10;101657.16;;;9.78;100.00
65758;BME280;52495;52.208;5.158;2023-02-18T05:45:38;101663.19;;;9.77;100.00
65758;BME280;52495;52.208;5.158;2023-02-18T05:48:05;101671.78;;;9.79;100.00
65758;BME280;52495;52.208;5.158;2023-02-18T05:50:32;101660.63;;;9.79;100.00
65758;BME280;52495;52.208;5.158;2023-02-18T05:52:59;101655.47;;;9.79;100.00
65758;BME280;52495;52.208;5.158;2023-02-18T05:55:27;101643.41;;;9.78;100.00
65758;BME280;52495;52.208;5.158;2023-02-18T05:57:54;101646.00;;;9.81;100.00
65758;BME280;52495;52.208;5.158;2023-02-18T06:00:21;101652.84;;;9.77;100.00
65758;BME280;52495;52.208;5.158;2023-02-18T06:02:48;101657.16;;;9.81;100.00
65758;BME280;52495;52.208;5.158;2023-02-18T06:05:15;101658.88;;;9.84;100.00
65758;BME280;52495;52.208;5.158;2023-02-18T06:07:41;101657.16;;;9.81;100.00
65758;BME280;52495;52.208;5.158;2023-02-18T06:10:09;101661.47;;;9.85;100.00
65758;BME280;52495;52.208;5.158;2023-02-18T06:12:37;101651.16;;;9.85;100.00
65758;BME280;52495;52.208;5.158;2023-02-18T06:15:04;101660.59;;;9.85;100.00
65758;BME280;52495;52.208;5.158;2023-02-18T06:17:31;101653.72;;;9.87;100.00
65758;BME280;52495;52.208;5.158;2023-02-18T06:19:58;101658.00;;;9.93;100.00
65758;BME280;52495;52.208;5.158;2023-02-18T06:22:25;101658.00;;;9.96;100.00
65758;BME280;52495;52.208;5.158;2023-02-18T06:24:52;101655.44;;;9.91;100.00
65758;BME280;52495;52.208;5.158;2023-02-18T06:27:19;101645.13;;;9.97;100.00
65758;BME280;52495;52.208;5.158;2023-02-18T06:29:48;101655.44;;;9.97;100.00
65758;BME280;52495;52.208;5.158;2023-02-18T06:32:14;101653.72;;;9.93;100.00
65758;BME280;52495;52.208;5.158;2023-02-18T06:34:41;101649.41;;;9.97;100.00
65758;BME280;52495;52.208;5.158;2023-02-18T06:37:08;101656.28;;;9.95;100.00
65758;BME280;52495;52.208;5.158;2023-02-18T06:39:35;101663.19;;;9.90;100.00
65758;BME280;52495;52.208;5.158;2023-02-18T06:42:02;101664.03;;;9.95;100.00
65758;BME280;52495;52.208;5.158;2023-02-18T06:44:29;101662.31;;;9.94;100.00
65758;BME280;52495;52.208;5.158;2023-02-18T06:46:57;101666.63;;;9.93;100.00
65758;BME280;52495;52.208;5.158;2023-02-18T06:49:24;101671.78;;;9.93;100.00
65758;BME280;52495;52.208;5.158;2023-02-18T06:51:51;101660.59;;;9.93;100.00
65758;BME280;52495;52.208;5.158;2023-02-18T06:54:18;101658.88;;;9.87;100.00
65758;BME280;52495;52.208;5.158;2023-02-18T06:56:44;101664.91;;;9.89;100.00
65758;BME280;52495;52.208;5.158;2023-02-18T06:59:11;101653.69;;;9.98;100.00
65758;BME280;52495;52.208;5.158;2023-02-18T07:01:38;101648.53;;;9.95;100.00
65758;BME280;52495;52.208;5.158;2023-02-18T07:04:06;101658.00;;;9.93;100.00
65758;BME280;52495;52.208;5.158;2023-02-18T07:06:33;101647.69;;;9.88;100.00
65758;BME280;52495;52.208;5.158;2023-02-18T07:09:00;101647.69;;;9.88;100.00
65758;BME280;52495;52.208;5.158;2023-02-18T07:11:27;101647.72;;;9.83;100.00
65758;BME280;52495;52.208;5.158;2023-02-18T07:13:54;101649.41;;;9.86;100.00
65758;BME280;52495;52.208;5.158;2023-02-18T07:16:21;101660.59;;;9.83;100.00
65758;BME280;52495;52.208;5.158;2023-02-18T07:18:48;101651.16;;;9.82;100.00
65758;BME280;52495;52.208;5.158;2023-02-18T07:21:16;101650.28;;;9.85;100.00
65758;BME280;52495;52.208;5.158;2023-02-18T07:23:43;101650.28;;;9.86;100.00
65758;BME280;52495;52.208;5.158;2023-02-18T07:26:12;101651.13;;;9.87;100.00
65758;BME280;52495;52.208;5.158;2023-02-18T07:28:39;101643.41;;;9.90;100.00
65758;BME280;52495;52.208;5.158;2023-02-18T07:31:07;101645.13;;;9.90;100.00
65758;BME280;52495;52.208;5.158;2023-02-18T07:33:34;101637.41;;;9.86;100.00
65758;BME280;52495;52.208;5.158;2023-02-18T07:36:01;101639.94;;;9.93;100.00
65758;BME280;52495;52.208;5.158;2023-02-18T07:38:30;101638.22;;;9.92;100.00
65758;BME280;52495;52.208;5.158;2023-02-18T07:40:57;101645.97;;;9.92;100.00
65758;BME280;52495;52.208;5.158;2023-02-18T07:43:25;101635.69;;;9.89;100.00
65758;BME280;52495;52.208;5.158;2023-02-18T07:45:53;101647.69;;;9.88;100.00
65758;BME280;52495;52.208;5.158;2023-02-18T07:48:20;101641.69;;;9.81;100.00
65758;BME280;52495;52.208;5.158;2023-02-18T07:50:47;101644.28;;;9.84;100.00
65758;BME280;52495;52.208;5.158;2023-02-18T07:53:15;101652.88;;;9.79;100.00
65758;BME280;52495;52.208;5.158;2023-02-18T07:55:43;101653.75;;;9.78;100.00
65758;BME280;52495;52.208;5.158;2023-02-18T07:58:16;101659.75;;;9.72;100.00
65758;BME280;52495;52.208;5.158;2023-02-18T08:00:44;101662.31;;;9.74;100.00
65758;BME280;52495;52.208;5.158;2023-02-18T08:03:12;101654.59;;;9.70;100.00
65758;BME280;52495;52.208;5.158;2023-02-18T08:05:39;101664.03;;;9.64;100.00
65758;BME280;52495;52.208;5.158;2023-02-18T08:08:06;101667.50;;;9.58;100.00
65758;BME280;52495;52.208;5.158;2023-02-18T08:10:32;101667.47;;;9.60;100.00
65758;BME280;52495;52.208;5.158;2023-02-18T08:13:01;101664.06;;;9.62;100.00
65758;BME280;52495;52.208;5.158;2023-02-18T08:15:27;101668.34;;;9.59;100.00
65758;BME280;52495;52.208;5.158;2023-02-18T08:17:54;101688.97;;;9.57;100.00
65758;BME280;52495;52.208;5.158;2023-02-18T08:20:21;101681.25;;;9.57;100.00
65758;BME280;52495;52.208;5.158;2023-02-18T08:22:48;101670.06;;;9.50;100.00
65758;BME280;52495;52.208;5.158;2023-02-18T08:25:15;101672.63;;;9.41;100.00
65758;BME280;52495;52.208;5.158;2023-02-18T08:27:42;101669.19;;;9.40;100.00
65758;BME280;52495;52.208;5.158;2023-02-18T08:30:11;101671.78;;;9.39;100.00
65758;BME280;52495;52.208;5.158;2023-02-18T08:32:38;101687.25;;;9.44;100.00
65758;BME280;52495;52.208;5.158;2023-02-18T08:35:05;101676.09;;;9.45;100.00
65758;BME280;52495;52.208;5.158;2023-02-18T08:37:33;101682.09;;;9.44;100.00
65758;BME280;52495;52.208;5.158;2023-02-18T08:40:00;101676.94;;;9.45;100.00
65758;BME280;52495;52.208;5.158;2023-02-18T08:42:27;101678.66;;;9.49;100.00
65758;BME280;52495;52.208;5.158;2023-02-18T08:44:54;101676.06;;;9.41;100.00
65758;BME280;52495;52.208;5.158;2023-02-18T08:47:22;101670.91;;;9.41;100.00
65758;BME280;52495;52.208;5.158;2023-02-18T08:49:51;101673.50;;;9.46;100.00
65758;BME280;52495;52.208;5.158;2023-02-18T08:52:18;101670.91;;;9.41;100.00
65758;BME280;52495;52.208;5.158;2023-02-18T08:54:45;101683.78;;;9.40;100.00
65758;BME280;52495;52.208;5.158;2023-02-18T08:57:12;101672.63;;;9.39;100.00
65758;BME280;52495;52.208;5.158;2023-02-18T08:59:38;101685.53;;;9.38;100.00
65758;BME280;52495;52.208;5.158;2023-02-18T09:02:05;101684.66;;;9.42;100.00
65758;BME280;52495;52.208;5.158;2023-02-18T09:04:34;101700.13;;;9.40;100.00
65758;BME280;52495;52.208;5.158;2023-02-18T09:07:01;101682.09;;;9.45;100.00
65758;BME280;52495;52.208;5.158;2023-02-18T09:09:28;101689.81;;;9.45;100.00
65758;BME280;52495;52.208;5.158;2023-02-18T09:11:55;101683.81;;;9.49;100.00
65758;BME280;52495;52.208;5.158;2023-02-18T09:14:22;101690.66;;;9.49;100.00
65758;BME280;52495;52.208;5.158;2023-02-18T09:16:49;101692.38;;;9.50;100.00
65758;BME280;52495;52.208;5.158;2023-02-18T09:19:16;101685.53;;;9.52;100.00
65758;BME280;52495;52.208;5.158;2023-02-18T09:21:44;101696.69;;;9.54;100.00
65758;BME280;52495;52.208;5.158;2023-02-18T09:24:11;101697.56;;;9.57;100.00
65758;BME280;52495;52.208;5.158;2023-02-18T09:26:38;101694.13;;;9.62;100.00
65758;BME280;52495;52.208;5.158;2023-02-18T09:29:05;101698.41;;;9.63;100.00
65758;BME280;52495;52.208;5.158;2023-02-18T09:31:32;101698.44;;;9.66;100.00
65758;BME280;52495;52.208;5.158;2023-02-18T09:34:00;101707.03;;;9.68;100.00
65758;BME280;52495;52.208;5.158;2023-02-18T09:36:28;101707.88;;;9.67;100.00
65758;BME280;52495;52.208;5.158;2023-02-18T09:38:56;101718.19;;;9.64;100.00
65758;BME280;52495;52.208;5.158;2023-02-18T09:41:32;101713.03;;;9.67;100.00
65758;BME280;52495;52.208;5.158;2023-02-18T09:44:02;101717.31;;;9.74;100.00
65758;BME280;52495;52.208;5.158;2023-02-18T09:46:33;101713.91;;;9.77;99.99
65758;BME280;52495;52.208;5.158;2023-02-18T09:49:02;101721.63;;;9.81;99.89
65758;BME280;52495;52.208;5.158;2023-02-18T09:51:29;101718.22;;;9.78;99.97
65758;BME280;52495;52.208;5.158;2023-02-18T09:53:58;101742.28;;;9.80;99.66
65758;BME280;52495;52.208;5.158;2023-02-18T09:56:27;101717.34;;;9.83;99.32
65758;BME280;52495;52.208;5.158;2023-02-18T09:58:56;101727.66;;;9.88;99.66
65758;BME280;52495;52.208;5.158;2023-02-18T10:01:27;101719.03;;;9.91;99.53
65758;BME280;52495;52.208;5.158;2023-02-18T10:03:59;101726.81;;;9.92;99.90
65758;BME280;52495;52.208;5.158;2023-02-18T10:06:30;101718.19;;;9.92;99.13
65758;BME280;52495;52.208;5.158;2023-02-18T10:09:02;101723.38;;;9.96;99.55
65758;BME280;52495;52.208;5.158;2023-02-18T10:11:32;101727.66;;;9.96;98.93
65758;BME280;52495;52.208;5.158;2023-02-18T10:14:01;101737.13;;;9.97;99.20
65758;BME280;52495;52.208;5.158;2023-02-18T10:16:29;101732.84;;;9.97;99.03
65758;BME280;52495;52.208;5.158;2023-02-18T10:18:58;101736.25;;;10.06;98.64
65758;BME280;52495;52.208;5.158;2023-02-18T10:21:28;101722.50;;;10.03;98.96
65758;BME280;52495;52.208;5.158;2023-02-18T10:24:00;101720.78;;;10.09;98.93
65758;BME280;52495;52.208;5.158;2023-02-18T10:26:32;101729.38;;;10.12;98.86
65758;BME280;52495;52.208;5.158;2023-02-18T10:29:00;101730.22;;;10.21;99.26
65758;BME280;52495;52.208;5.158;2023-02-18T10:31:30;101749.13;;;10.26;98.02
65758;BME280;52495;52.208;5.158;2023-02-18T10:34:06;101733.66;;;10.32;97.73
65758;BME280;52495;52.208;5.158;2023-02-18T10:36:43;101740.53;;;10.31;97.39
65758;BME280;52495;52.208;5.158;2023-02-18T10:39:31;101739.66;;;10.34;97.26
65758;BME280;52495;52.208;5.158;2023-02-18T10:42:09;101755.16;;;10.45;97.65
65758;BME280;52495;52.208;5.158;2023-02-18T10:44:46;101764.63;;;10.46;96.71
65758;BME280;52495;52.208;5.158;2023-02-18T10:47:22;101756.03;;;10.45;96.95
65758;BME280;52495;52.208;5.158;2023-02-18T10:49:58;101756.00;;;10.52;96.63
65758;BME280;52495;52.208;5.158;2023-02-18T10:52:27;101757.72;;;10.57;95.90
65758;BME280;52495;52.208;5.158;2023-02-18T10:55:00;101759.44;;;10.58;96.25
65758;BME280;52495;52.208;5.158;2023-02-18T10:57:29;101747.38;;;10.60;96.52
65758;BME280;52495;52.208;5.158;2023-02-18T11:00:00;101766.31;;;10.70;96.41
65758;BME280;52495;52.208;5.158;2023-02-18T11:02:35;101762.88;;;10.62;96.23
65758;BME280;52495;52.208;5.158;2023-02-18T11:05:16;101751.66;;;10.66;96.02
65758;BME280;52495;52.208;5.158;2023-02-18T11:07:47;101746.47;;;10.74;95.88
65758;BME280;52495;52.208;5.158;2023-02-18T11:10:21;101741.34;;;10.69;96.58
65758;BME280;52495;52.208;5.158;2023-02-18T11:12:50;101753.38;;;10.70;96.57
65758;BME280;52495;52.208;5.158;2023-02-18T11:15:20;101739.59;;;10.73;96.30
65758;BME280;52495;52.208;5.158;2023-02-18T11:17:50;101737.03;;;10.71;97.13
65758;BME280;52495;52.208;5.158;2023-02-18T11:20:30;101752.53;;;10.68;97.22
65758;BME280;52495;52.208;5.158;2023-02-18T11:23:13;101766.31;;;10.59;98.52
65758;BME280;52495;52.208;5.158;2023-02-18T11:25:52;101749.09;;;10.60;99.89
65758;BME280;52495;52.208;5.158;2023-02-18T11:28:30;101744.81;;;10.57;100.00
65758;BME280;52495;52.208;5.158;2023-02-18T11:31:00;101753.44;;;10.58;100.00
65758;BME280;52495;52.208;5.158;2023-02-18T11:33:32;101759.47;;;10.51;100.00
65758;BME280;52495;52.208;5.158;2023-02-18T11:36:04;101763.72;;;10.67;100.00
65758;BME280;52495;52.208;5.158;2023-02-18T11:38:43;101767.16;;;10.68;100.00
65758;BME280;52495;52.208;5.158;2023-02-18T11:41:14;101755.13;;;10.71;100.00
65758;BME280;52495;52.208;5.158;2023-02-18T11:43:45;101747.34;;;10.76;99.65
65758;BME280;52495;52.208;5.158;2023-02-18T11:46:14;101753.38;;;10.78;98.46
65758;BME280;52495;52.208;5.158;2023-02-18T11:48:41;101744.75;;;10.77;98.09
65758;BME280;52495;52.208;5.158;2023-02-18T11:51:15;101743.00;;;10.80;97.38
65758;BME280;52495;52.208;5.158;2023-02-18T11:53:57;101747.34;;;10.79;97.21
65758;BME280;52495;52.208;5.158;2023-02-18T11:56:29;101744.72;;;10.90;97.39
65758;BME280;52495;52.208;5.158;2023-02-18T11:58:56;101747.34;;;10.82;96.39
65758;BME280;52495;52.208;5.158;2023-02-18T12:01:30;101753.31;;;10.90;97.02
65758;BME280;52495;52.208;5.158;2023-02-18T12:04:06;101749.88;;;10.93;96.63
65758;BME280;52495;52.208;5.158;2023-02-18T12:06:37;101745.56;;;10.90;96.52
65758;BME280;52495;52.208;5.158;2023-02-18T12:09:13;101761.06;;;10.90;97.00
65758;BME280;52495;52.208;5.158;2023-02-18T12:11:48;101755.06;;;10.90;96.58
65758;BME280;52495;52.208;5.158;2023-02-18T12:14:18;101759.34;;;10.91;97.10
65758;BME280;52495;52.208;5.158;2023-02-18T12:16:59;101747.28;;;10.91;97.01
65758;BME280;52495;52.208;5.158;2023-02-18T12:22:40;101748.97;;;11.00;96.97
65758;BME280;52495;52.208;5.158;2023-02-18T12:25:23;101743.78;;;11.06;97.14
65758;BME280;52495;52.208;5.158;2023-02-18T12:27:55;101744.63;;;11.10;96.85
65758;BME280;52495;52.208;5.158;2023-02-18T12:30:44;101750.63;;;11.12;96.75
65758;BME280;52495;52.208;5.158;2023-02-18T12:33:22;101744.53;;;11.22;96.12
65758;BME280;52495;52.208;5.158;2023-02-18T12:36:01;101741.97;;;11.27;96.01
65758;BME280;52495;52.208;5.158;2023-02-18T12:39:01;101742.78;;;11.34;94.64
65758;BME280;52495;52.208;5.158;2023-02-18T12:41:44;101751.28;;;11.50;94.19
65758;BME280;52495;52.208;5.158;2023-02-18T12:44:33;101748.66;;;11.56;93.94
65758;BME280;52495;52.208;5.158;2023-02-18T12:47:31;101735.72;;;11.59;93.90
65758;BME280;52495;52.208;5.158;2023-02-18T12:50:12;101748.59;;;11.62;93.74
65758;BME280;52495;52.208;5.158;2023-02-18T12:52:54;101756.38;;;11.67;93.54
65758;BME280;52495;52.208;5.158;2023-02-18T12:55:50;101768.47;;;11.59;93.60
65758;BME280;52495;52.208;5.158;2023-02-18T12:58:30;101759.81;;;11.64;93.44
65758;BME280;52495;52.208;5.158;2023-02-18T13:04:17;101761.59;;;11.56;94.04
65758;BME280;52495;52.208;5.158;2023-02-18T13:10:11;101770.25;;;11.50;94.22
65758;BME280;52495;52.208;5.158;2023-02-18T13:12:50;101761.63;;;11.50;94.14
65758;BME280;52495;52.208;5.158;2023-02-18T13:15:22;101759.09;;;11.44;94.27
65758;BME280;52495;52.208;5.158;2023-02-18T13:17:55;101765.97;;;11.45;94.51
65758;BME280;52495;52.208;5.158;2023-02-18T13:20:29;101772.91;;;11.43;94.52
65758;BME280;52495;52.208;5.158;2023-02-18T13:23:01;101764.22;;;11.47;94.74